sensor_id;sensor_type;location;lat;lon;timestamp;pressure;altitude;pressure_sealevel;temperature;humidity
16355;BME280;8287;51.644;8.494;2023-03-16T00:01:02;100838.63;;;4.35;64.30
16355;BME280;8287;51.644;8.494;2023-03-16T00:03:29;100832.84;;;4.33;64.24
16355;BME280;8287;51.644;8.494;2023-03-16T00:05:58;100830.50;;;4.32;64.27
16355;BME280;8287;51.644;8.494;2023-03-16T00:08:26;100830.50;;;4.37;64.70
16355;BME280;8287;51.644;8.494;2023-03-16T00:10:53;100825.44;;;4.25;64.32
16355;BME280;8287;51.644;8.494;2023-03-16T00:13:21;100823.91;;;4.29;64.62
16355;BME280;8287;51.644;8.494;2023-03-16T00:15:49;100832.91;;;4.07;64.99
16355;BME280;8287;51.644;8.494;2023-03-16T00:18:16;100827.72;;;4.17;64.67
16355;BME280;8287;51.644;8.494;2023-03-16T00:20:43;100826.16;;;4.16;64.70
16355;BME280;8287;51.644;8.494;2023-03-16T00:23:10;100837.78;;;4.25;64.54
16355;BME280;8287;51.644;8.494;2023-03-16T00:25:37;100831.75;;;3.98;65.29
16355;BME280;8287;51.644;8.494;2023-03-16T00:28:06;100828.13;;;4.04;65.38
16355;BME280;8287;51.644;8.494;2023-03-16T00:30:33;100832.69;;;3.87;65.40
16355;BME280;8287;51.644;8.494;2023-03-16T00:32:59;100831.09;;;3.86;65.67
16355;BME280;8287;51.644;8.494;2023-03-16T00:35:26;100831.78;;;3.76;65.94
16355;BME280;8287;51.644;8.494;2023-03-16T00:37:52;100834.78;;;3.85;65.09
16355;BME280;8287;51.644;8.494;2023-03-16T00:40:21;100836.06;;;3.82;65.23
16355;BME280;8287;51.644;8.494;2023-03-16T00:42:49;100831.75;;;3.71;65.31
16355;BME280;8287;51.644;8.494;2023-03-16T00:45:16;100840.00;;;3.85;65.25
16355;BME280;8287;51.644;8.494;2023-03-16T00:47:42;100827.41;;;3.82;65.06
16355;BME280;8287;51.644;8.494;2023-03-16T00:50:09;100834.69;;;3.75;64.95
16355;BME280;8287;51.644;8.494;2023-03-16T00:52:36;100827.00;;;3.68;65.39
16355;BME280;8287;51.644;8.494;2023-03-16T00:55:03;100830.94;;;3.71;65.49
16355;BME280;8287;51.644;8.494;2023-03-16T00:57:30;100831.06;;;3.54;66.16
16355;BME280;8287;51.644;8.494;2023-03-16T00:59:58;100828.53;;;3.64;66.28
16355;BME280;8287;51.644;8.494;2023-03-16T01:02:29;100820.59;;;3.59;66.29
16355;BME280;8287;51.644;8.494;2023-03-16T01:04:56;100807.28;;;3.61;66.39
16355;BME280;8287;51.644;8.494;2023-03-16T01:07:23;100802.47;;;3.53;66.23
16355;BME280;8287;51.644;8.494;2023-03-16T01:09:50;100805.28;;;3.46;66.92
16355;BME280;8287;51.644;8.494;2023-03-16T01:12:17;100809.13;;;3.39;67.32
16355;BME280;8287;51.644;8.494;2023-03-16T01:14:45;100799.22;;;3.41;67.37
16355;BME280;8287;51.644;8.494;2023-03-16T01:17:14;100805.34;;;3.30;67.75
16355;BME280;8287;51.644;8.494;2023-03-16T01:19:42;100790.81;;;3.17;68.25
16355;BME280;8287;51.644;8.494;2023-03-16T01:22:10;100786.69;;;3.21;68.24
16355;BME280;8287;51.644;8.494;2023-03-16T01:24:37;100790.13;;;3.27;67.64
16355;BME280;8287;51.644;8.494;2023-03-16T01:27:06;100785.56;;;3.39;67.36
16355;BME280;8287;51.644;8.494;2023-03-16T01:29:33;100778.59;;;3.49;67.33
16355;BME280;8287;51.644;8.494;2023-03-16T01:32:00;100775.75;;;3.51;67.04
16355;BME280;8287;51.644;8.494;2023-03-16T01:34:30;100765.25;;;3.51;66.77
16355;BME280;8287;51.644;8.494;2023-03-16T01:36:56;100777.38;;;3.57;66.41
16355;BME280;8287;51.644;8.494;2023-03-16T01:39:23;100790.91;;;3.49;66.19
16355;BME280;8287;51.644;8.494;2023-03-16T01:41:50;100785.19;;;3.52;65.78
16355;BME280;8287;51.644;8.494;2023-03-16T01:44:19;100781.00;;;3.56;65.62
16355;BME280;8287;51.644;8.494;2023-03-16T01:46:47;100785.28;;;3.62;65.98
16355;BME280;8287;51.644;8.494;2023-03-16T01:49:15;100779.56;;;3.43;66.09
16355;BME280;8287;51.644;8.494;2023-03-16T01:51:48;100778.59;;;3.49;66.25
16355;BME280;8287;51.644;8.494;2023-03-16T01:54:21;100766.53;;;3.48;65.17
16355;BME280;8287;51.644;8.494;2023-03-16T01:56:54;100755.84;;;3.55;65.16
16355;BME280;8287;51.644;8.494;2023-03-16T01:59:25;100764.38;;;3.67;65.16
16355;BME280;8287;51.644;8.494;2023-03-16T02:01:53;100755.47;;;3.68;64.80
16355;BME280;8287;51.644;8.494;2023-03-16T02:04:31;100748.59;;;3.62;64.51
16355;BME280;8287;51.644;8.494;2023-03-16T02:07:04;100748.28;;;3.58;63.88
16355;BME280;8287;51.644;8.494;2023-03-16T02:09:32;100749.72;;;3.71;64.63
16355;BME280;8287;51.644;8.494;2023-03-16T02:12:00;100739.91;;;3.56;64.36
16355;BME280;8287;51.644;8.494;2023-03-16T02:14:27;100736.47;;;3.56;64.49
16355;BME280;8287;51.644;8.494;2023-03-16T02:16:53;100731.16;;;3.46;64.92
16355;BME280;8287;51.644;8.494;2023-03-16T02:19:30;100722.31;;;3.52;64.30
16355;BME280;8287;51.644;8.494;2023-03-16T02:22:03;100716.25;;;3.46;65.02
16355;BME280;8287;51.644;8.494;2023-03-16T02:24:31;100702.00;;;3.37;65.06
16355;BME280;8287;51.644;8.494;2023-03-16T02:27:00;100708.28;;;3.36;65.13
16355;BME280;8287;51.644;8.494;2023-03-16T02:29:54;100700.75;;;3.45;64.44
16355;BME280;8287;51.644;8.494;2023-03-16T02:32:23;100706.50;;;3.42;65.92
16355;BME280;8287;51.644;8.494;2023-03-16T02:34:51;100704.66;;;3.42;66.38
16355;BME280;8287;51.644;8.494;2023-03-16T02:37:17;100696.94;;;3.31;66.61
16355;BME280;8287;51.644;8.494;2023-03-16T02:39:45;100697.81;;;3.36;66.93
16355;BME280;8287;51.644;8.494;2023-03-16T02:42:14;100699.78;;;3.24;66.90
16355;BME280;8287;51.644;8.494;2023-03-16T02:44:46;100699.25;;;3.22;67.11
16355;BME280;8287;51.644;8.494;2023-03-16T02:47:21;100703.63;;;3.17;67.35
16355;BME280;8287;51.644;8.494;2023-03-16T02:49:50;100712.56;;;3.21;67.25
16355;BME280;8287;51.644;8.494;2023-03-16T02:52:16;100697.34;;;3.18;67.53
16355;BME280;8287;51.644;8.494;2023-03-16T02:54:43;100702.59;;;3.18;67.17
16355;BME280;8287;51.644;8.494;2023-03-16T02:57:10;100701.31;;;3.20;66.82
16355;BME280;8287;51.644;8.494;2023-03-16T02:59:36;100695.69;;;3.07;67.37
16355;BME280;8287;51.644;8.494;2023-03-16T03:02:04;100693.72;;;2.98;67.57
16355;BME280;8287;51.644;8.494;2023-03-16T03:04:31;100691.06;;;2.93;67.99
16355;BME280;8287;51.644;8.494;2023-03-16T03:06:58;100693.88;;;2.86;68.43
16355;BME280;8287;51.644;8.494;2023-03-16T03:09:29;100695.06;;;3.00;67.92
16355;BME280;8287;51.644;8.494;2023-03-16T03:11:56;100694.97;;;2.90;68.06
16355;BME280;8287;51.644;8.494;2023-03-16T03:14:23;100690.63;;;2.79;68.22
16355;BME280;8287;51.644;8.494;2023-03-16T03:16:50;100688.03;;;2.79;68.65
16355;BME280;8287;51.644;8.494;2023-03-16T03:19:18;100682.47;;;2.76;68.48
16355;BME280;8287;51.644;8.494;2023-03-16T03:21:44;100682.69;;;2.69;68.18
16355;BME280;8287;51.644;8.494;2023-03-16T03:24:11;100685.41;;;2.79;68.27
16355;BME280;8287;51.644;8.494;2023-03-16T03:26:38;100678.56;;;2.73;67.85
16355;BME280;8287;51.644;8.494;2023-03-16T03:29:04;100682.75;;;2.74;67.66
16355;BME280;8287;51.644;8.494;2023-03-16T03:31:31;100687.13;;;2.69;67.95
16355;BME280;8287;51.644;8.494;2023-03-16T03:33:57;100688.41;;;2.66;67.69
16355;BME280;8287;51.644;8.494;2023-03-16T03:36:25;100682.06;;;2.62;68.40
16355;BME280;8287;51.644;8.494;2023-03-16T03:38:52;100678.25;;;2.70;67.92
16355;BME280;8287;51.644;8.494;2023-03-16T03:41:19;100683.09;;;2.61;67.81
16355;BME280;8287;51.644;8.494;2023-03-16T03:43:46;100682.56;;;2.59;68.70
16355;BME280;8287;51.644;8.494;2023-03-16T03:46:13;100670.09;;;2.66;68.04
16355;BME280;8287;51.644;8.494;2023-03-16T03:48:39;100668.09;;;2.52;68.66
16355;BME280;8287;51.644;8.494;2023-03-16T03:51:06;100676.91;;;2.67;68.60
16355;BME280;8287;51.644;8.494;2023-03-16T03:53:34;100679.13;;;2.59;68.50
16355;BME280;8287;51.644;8.494;2023-03-16T03:56:01;100678.16;;;2.43;68.84
16355;BME280;8287;51.644;8.494;2023-03-16T03:58:27;100683.53;;;2.53;68.63
16355;BME280;8287;51.644;8.494;2023-03-16T04:00:54;100683.28;;;2.55;68.72
16355;BME280;8287;51.644;8.494;2023-03-16T04:03:20;100684.00;;;2.50;68.49
16355;BME280;8287;51.644;8.494;2023-03-16T04:05:47;100682.56;;;2.59;69.06
16355;BME280;8287;51.644;8.494;2023-03-16T04:08:17;100679.53;;;2.67;69.03
16355;BME280;8287;51.644;8.494;2023-03-16T04:10:46;100676.38;;;2.65;69.11
16355;BME280;8287;51.644;8.494;2023-03-16T04:13:12;100672.59;;;2.78;68.63
16355;BME280;8287;51.644;8.494;2023-03-16T04:15:39;100680.47;;;2.61;68.86
16355;BME280;8287;51.644;8.494;2023-03-16T04:18:05;100673.19;;;2.63;69.28
16355;BME280;8287;51.644;8.494;2023-03-16T04:20:32;100666.38;;;2.62;69.00
16355;BME280;8287;51.644;8.494;2023-03-16T04:22:58;100667.91;;;2.58;69.88
16355;BME280;8287;51.644;8.494;2023-03-16T04:25:26;100675.31;;;2.66;69.46
16355;BME280;8287;51.644;8.494;2023-03-16T04:27:56;100668.25;;;2.67;69.75
16355;BME280;8287;51.644;8.494;2023-03-16T04:30:22;100661.72;;;2.64;69.66
16355;BME280;8287;51.644;8.494;2023-03-16T04:32:49;100660.09;;;2.63;69.80
16355;BME280;8287;51.644;8.494;2023-03-16T04:35:16;100656.63;;;2.79;69.19
16355;BME280;8287;51.644;8.494;2023-03-16T04:37:43;100659.25;;;2.79;69.15
16355;BME280;8287;51.644;8.494;2023-03-16T04:40:11;100654.50;;;2.76;69.65
16355;BME280;8287;51.644;8.494;2023-03-16T04:42:44;100666.31;;;2.79;70.03
16355;BME280;8287;51.644;8.494;2023-03-16T04:45:14;100665.09;;;2.86;69.10
16355;BME280;8287;51.644;8.494;2023-03-16T04:47:41;100654.72;;;2.96;69.27
16355;BME280;8287;51.644;8.494;2023-03-16T04:50:09;100653.19;;;3.00;68.24
16355;BME280;8287;51.644;8.494;2023-03-16T04:52:36;100650.78;;;3.20;68.16
16355;BME280;8287;51.644;8.494;2023-03-16T04:55:03;100640.09;;;3.26;67.42
16355;BME280;8287;51.644;8.494;2023-03-16T04:57:30;100643.81;;;3.30;67.55
16355;BME280;8287;51.644;8.494;2023-03-16T04:59:57;100640.75;;;3.38;67.02
16355;BME280;8287;51.644;8.494;2023-03-16T05:02:25;100639.47;;;3.46;66.72
16355;BME280;8287;51.644;8.494;2023-03-16T05:04:51;100652.63;;;3.51;66.32
16355;BME280;8287;51.644;8.494;2023-03-16T05:07:19;100654.75;;;3.54;66.10
16355;BME280;8287;51.644;8.494;2023-03-16T05:09:45;100653.22;;;3.58;66.09
16355;BME280;8287;51.644;8.494;2023-03-16T05:12:12;100657.91;;;3.56;66.67
16355;BME280;8287;51.644;8.494;2023-03-16T05:14:39;100657.78;;;3.72;66.33
16355;BME280;8287;51.644;8.494;2023-03-16T05:17:05;100661.50;;;3.81;65.46
16355;BME280;8287;51.644;8.494;2023-03-16T05:19:33;100657.63;;;3.89;64.16
16355;BME280;8287;51.644;8.494;2023-03-16T05:22:00;100666.00;;;3.86;64.17
16355;BME280;8287;51.644;8.494;2023-03-16T05:24:26;100653.00;;;4.01;64.07
16355;BME280;8287;51.644;8.494;2023-03-16T05:26:53;100650.75;;;4.19;63.91
16355;BME280;8287;51.644;8.494;2023-03-16T05:29:19;100651.22;;;4.11;63.70
16355;BME280;8287;51.644;8.494;2023-03-16T05:31:46;100633.50;;;4.28;63.45
16355;BME280;8287;51.644;8.494;2023-03-16T05:34:13;100638.47;;;4.30;63.27
16355;BME280;8287;51.644;8.494;2023-03-16T05:36:41;100635.88;;;4.35;63.11
16355;BME280;8287;51.644;8.494;2023-03-16T05:39:09;100645.34;;;4.46;63.06
16355;BME280;8287;51.644;8.494;2023-03-16T05:41:36;100641.69;;;4.47;63.63
16355;BME280;8287;51.644;8.494;2023-03-16T05:44:02;100646.69;;;4.48;63.68
16355;BME280;8287;51.644;8.494;2023-03-16T05:46:30;100647.97;;;4.46;64.52
16355;BME280;8287;51.644;8.494;2023-03-16T05:48:57;100640.16;;;4.51;64.49
16355;BME280;8287;51.644;8.494;2023-03-16T05:51:24;100644.03;;;4.43;65.31
16355;BME280;8287;51.644;8.494;2023-03-16T05:53:53;100642.25;;;4.49;64.55
16355;BME280;8287;51.644;8.494;2023-03-16T05:56:22;100635.63;;;4.36;65.92
16355;BME280;8287;51.644;8.494;2023-03-16T05:58:49;100636.94;;;4.34;66.90
16355;BME280;8287;51.644;8.494;2023-03-16T06:01:16;100633.50;;;4.33;66.28
16355;BME280;8287;51.644;8.494;2023-03-16T06:03:42;100638.41;;;4.20;66.84
16355;BME280;8287;51.644;8.494;2023-03-16T06:06:09;100630.88;;;4.28;66.29
16355;BME280;8287;51.644;8.494;2023-03-16T06:08:35;100634.25;;;4.24;65.98
16355;BME280;8287;51.644;8.494;2023-03-16T06:11:04;100641.91;;;4.35;66.26
16355;BME280;8287;51.644;8.494;2023-03-16T06:13:30;100635.91;;;4.45;64.83
16355;BME280;8287;51.644;8.494;2023-03-16T06:15:57;100631.25;;;4.62;64.72
16355;BME280;8287;51.644;8.494;2023-03-16T06:18:23;100626.84;;;4.72;63.98
16355;BME280;8287;51.644;8.494;2023-03-16T06:20:50;100623.97;;;4.74;63.99
16355;BME280;8287;51.644;8.494;2023-03-16T06:23:16;100622.13;;;4.74;63.43
16355;BME280;8287;51.644;8.494;2023-03-16T06:25:45;100622.91;;;4.75;63.93
16355;BME280;8287;51.644;8.494;2023-03-16T06:28:13;100620.56;;;4.78;63.15
16355;BME280;8287;51.644;8.494;2023-03-16T06:30:40;100615.31;;;4.93;62.85
16355;BME280;8287;51.644;8.494;2023-03-16T06:33:07;100608.25;;;5.04;62.47
16355;BME280;8287;51.644;8.494;2023-03-16T06:35:34;100606.41;;;4.99;61.19
16355;BME280;8287;51.644;8.494;2023-03-16T06:38:00;100611.19;;;5.22;60.28
16355;BME280;8287;51.644;8.494;2023-03-16T06:40:27;100613.03;;;5.37;58.29
16355;BME280;8287;51.644;8.494;2023-03-16T06:42:54;100622.47;;;5.48;58.66
16355;BME280;8287;51.644;8.494;2023-03-16T06:45:22;100612.50;;;5.60;58.34
16355;BME280;8287;51.644;8.494;2023-03-16T06:47:50;100619.31;;;5.81;55.77
16355;BME280;8287;51.644;8.494;2023-03-16T06:50:17;100610.63;;;5.85;55.03
16355;BME280;8287;51.644;8.494;2023-03-16T06:52:43;100616.41;;;5.92;55.92
16355;BME280;8287;51.644;8.494;2023-03-16T06:55:10;100603.53;;;6.01;56.35
16355;BME280;8287;51.644;8.494;2023-03-16T06:57:38;100607.69;;;6.17;54.46
16355;BME280;8287;51.644;8.494;2023-03-16T07:00:07;100606.06;;;6.31;54.88
16355;BME280;8287;51.644;8.494;2023-03-16T07:02:35;100616.88;;;6.24;54.30
16355;BME280;8287;51.644;8.494;2023-03-16T07:05:04;100602.34;;;6.37;54.57
16355;BME280;8287;51.644;8.494;2023-03-16T07:07:31;100607.50;;;6.56;55.05
16355;BME280;8287;51.644;8.494;2023-03-16T07:09:57;100612.25;;;6.59;54.22
16355;BME280;8287;51.644;8.494;2023-03-16T07:12:24;100600.09;;;6.68;53.31
16355;BME280;8287;51.644;8.494;2023-03-16T07:14:51;100611.88;;;6.81;53.41
16355;BME280;8287;51.644;8.494;2023-03-16T07:17:17;100612.63;;;6.86;52.90
16355;BME280;8287;51.644;8.494;2023-03-16T07:19:45;100614.94;;;6.98;53.23
16355;BME280;8287;51.644;8.494;2023-03-16T07:22:12;100608.34;;;7.00;51.30
16355;BME280;8287;51.644;8.494;2023-03-16T07:24:38;100611.56;;;6.92;52.55
16355;BME280;8287;51.644;8.494;2023-03-16T07:27:06;100610.66;;;7.07;52.38
16355;BME280;8287;51.644;8.494;2023-03-16T07:29:33;100612.91;;;7.23;52.41
16355;BME280;8287;51.644;8.494;2023-03-16T07:31:59;100612.00;;;7.04;52.34
16355;BME280;8287;51.644;8.494;2023-03-16T07:34:26;100618.06;;;7.05;52.18
16355;BME280;8287;51.644;8.494;2023-03-16T07:36:54;100619.22;;;7.27;51.10
16355;BME280;8287;51.644;8.494;2023-03-16T07:39:20;100611.25;;;7.32;51.61
16355;BME280;8287;51.644;8.494;2023-03-16T07:41:48;100616.00;;;7.35;52.65
16355;BME280;8287;51.644;8.494;2023-03-16T07:44:15;100615.88;;;7.50;51.12
16355;BME280;8287;51.644;8.494;2023-03-16T07:46:42;100605.19;;;7.65;52.35
16355;BME280;8287;51.644;8.494;2023-03-16T07:49:09;100611.53;;;7.64;50.33
16355;BME280;8287;51.644;8.494;2023-03-16T07:51:36;100617.75;;;7.73;52.13
16355;BME280;8287;51.644;8.494;2023-03-16T07:54:04;100624.47;;;7.89;52.33
16355;BME280;8287;51.644;8.494;2023-03-16T07:56:31;100626.41;;;8.07;49.98
16355;BME280;8287;51.644;8.494;2023-03-16T07:58:57;100625.03;;;8.15;49.47
16355;BME280;8287;51.644;8.494;2023-03-16T08:01:24;100624.44;;;8.23;49.53
16355;BME280;8287;51.644;8.494;2023-03-16T08:03:50;100621.81;;;8.41;50.31
16355;BME280;8287;51.644;8.494;2023-03-16T08:06:17;100618.88;;;8.66;47.64
16355;BME280;8287;51.644;8.494;2023-03-16T08:08:44;100612.81;;;8.84;47.00
16355;BME280;8287;51.644;8.494;2023-03-16T08:11:12;100620.38;;;9.09;46.92
16355;BME280;8287;51.644;8.494;2023-03-16T08:13:39;100622.81;;;9.24;46.06
16355;BME280;8287;51.644;8.494;2023-03-16T08:16:08;100620.78;;;9.53;46.31
16355;BME280;8287;51.644;8.494;2023-03-16T08:18:35;100620.41;;;9.60;45.84
16355;BME280;8287;51.644;8.494;2023-03-16T08:21:02;100617.47;;;9.61;45.52
16355;BME280;8287;51.644;8.494;2023-03-16T08:23:29;100615.03;;;9.65;45.28
16355;BME280;8287;51.644;8.494;2023-03-16T08:25:57;100614.38;;;9.86;45.77
16355;BME280;8287;51.644;8.494;2023-03-16T08:28:26;100606.25;;;9.96;45.93
16355;BME280;8287;51.644;8.494;2023-03-16T08:30:53;100601.44;;;9.98;44.80
16355;BME280;8287;51.644;8.494;2023-03-16T08:33:22;100593.03;;;9.96;44.89
16355;BME280;8287;51.644;8.494;2023-03-16T08:35:50;100592.66;;;10.02;46.08
16355;BME280;8287;51.644;8.494;2023-03-16T08:38:20;100581.78;;;10.17;45.51
16355;BME280;8287;51.644;8.494;2023-03-16T08:40:46;100584.16;;;10.19;46.45
16355;BME280;8287;51.644;8.494;2023-03-16T08:43:13;100593.13;;;10.18;46.12
16355;BME280;8287;51.644;8.494;2023-03-16T08:45:43;100593.75;;;10.15;45.91
16355;BME280;8287;51.644;8.494;2023-03-16T08:48:10;100592.16;;;10.27;45.07
16355;BME280;8287;51.644;8.494;2023-03-16T08:50:38;100589.28;;;10.51;44.16
16355;BME280;8287;51.644;8.494;2023-03-16T08:53:05;100590.53;;;10.67;44.23
16355;BME280;8287;51.644;8.494;2023-03-16T08:55:32;100598.13;;;10.46;43.47
16355;BME280;8287;51.644;8.494;2023-03-16T08:57:59;100590.53;;;10.67;44.74
16355;BME280;8287;51.644;8.494;2023-03-16T09:00:26;100590.13;;;10.87;44.84
16355;BME280;8287;51.644;8.494;2023-03-16T09:02:55;100592.72;;;11.00;43.67
16355;BME280;8287;51.644;8.494;2023-03-16T09:05:22;100580.56;;;10.99;44.61
16355;BME280;8287;51.644;8.494;2023-03-16T09:07:50;100597.00;;;11.10;44.88
16355;BME280;8287;51.644;8.494;2023-03-16T09:10:18;100595.56;;;11.04;44.99
16355;BME280;8287;51.644;8.494;2023-03-16T09:12:47;100586.09;;;10.76;44.45
16355;BME280;8287;51.644;8.494;2023-03-16T09:15:14;100594.59;;;11.22;45.52
16355;BME280;8287;51.644;8.494;2023-03-16T09:17:41;100588.22;;;11.23;44.48
16355;BME280;8287;51.644;8.494;2023-03-16T09:20:12;100590.78;;;11.36;44.41
16355;BME280;8287;51.644;8.494;2023-03-16T09:22:40;100589.66;;;11.29;43.93
16355;BME280;8287;51.644;8.494;2023-03-16T09:25:07;100592.91;;;11.48;44.04
16355;BME280;8287;51.644;8.494;2023-03-16T09:27:35;100593.94;;;11.60;43.74
16355;BME280;8287;51.644;8.494;2023-03-16T09:30:02;100600.47;;;11.85;43.30
16355;BME280;8287;51.644;8.494;2023-03-16T09:32:29;100599.41;;;11.42;44.14
16355;BME280;8287;51.644;8.494;2023-03-16T09:34:56;100592.66;;;11.80;43.24
16355;BME280;8287;51.644;8.494;2023-03-16T09:37:24;100601.78;;;11.65;43.81
16355;BME280;8287;51.644;8.494;2023-03-16T09:39:51;100597.53;;;11.86;43.45
16355;BME280;8287;51.644;8.494;2023-03-16T09:42:24;100604.28;;;12.01;42.79
16355;BME280;8287;51.644;8.494;2023-03-16T09:45:05;100602.13;;;12.03;42.87
16355;BME280;8287;51.644;8.494;2023-03-16T09:47:34;100591.50;;;12.03;42.61
16355;BME280;8287;51.644;8.494;2023-03-16T09:50:05;100604.44;;;11.96;42.79
16355;BME280;8287;51.644;8.494;2023-03-16T09:52:40;100606.28;;;11.87;42.95
16355;BME280;8287;51.644;8.494;2023-03-16T09:55:16;100599.59;;;11.98;42.42
16355;BME280;8287;51.644;8.494;2023-03-16T09:57:49;100606.03;;;12.05;43.32
16355;BME280;8287;51.644;8.494;2023-03-16T10:00:19;100605.63;;;12.20;43.59
16355;BME280;8287;51.644;8.494;2023-03-16T10:02:59;100607.72;;;12.40;43.65
16355;BME280;8287;51.644;8.494;2023-03-16T10:05:28;100596.28;;;12.31;42.01
16355;BME280;8287;51.644;8.494;2023-03-16T10:08:07;100596.72;;;12.25;43.35
16355;BME280;8287;51.644;8.494;2023-03-16T10:10:54;100596.66;;;12.08;42.70
16355;BME280;8287;51.644;8.494;2023-03-16T10:13:31;100603.00;;;12.29;41.61
16355;BME280;8287;51.644;8.494;2023-03-16T10:16:04;100602.66;;;12.22;42.18
16355;BME280;8287;51.644;8.494;2023-03-16T10:18:40;100600.34;;;11.59;42.53
16355;BME280;8287;51.644;8.494;2023-03-16T10:21:11;100602.63;;;11.74;43.62
16355;BME280;8287;51.644;8.494;2023-03-16T10:23:40;100610.63;;;12.22;43.37
16355;BME280;8287;51.644;8.494;2023-03-16T10:26:12;100600.34;;;12.37;41.34
16355;BME280;8287;51.644;8.494;2023-03-16T10:28:39;100595.56;;;12.48;41.90
16355;BME280;8287;51.644;8.494;2023-03-16T10:31:08;100598.66;;;12.50;41.06
16355;BME280;8287;51.644;8.494;2023-03-16T10:33:36;100600.44;;;12.63;41.26
16355;BME280;8287;51.644;8.494;2023-03-16T10:36:11;100602.28;;;12.62;41.72
16355;BME280;8287;51.644;8.494;2023-03-16T10:38:43;100596.97;;;12.54;40.32
16355;BME280;8287;51.644;8.494;2023-03-16T10:41:29;100596.81;;;12.59;41.29
16355;BME280;8287;51.644;8.494;2023-03-16T10:43:58;100594.25;;;12.28;41.68
16355;BME280;8287;51.644;8.494;2023-03-16T10:46:36;100592.59;;;12.58;41.57
16355;BME280;8287;51.644;8.494;2023-03-16T10:49:04;100578.09;;;12.81;40.98
16355;BME280;8287;51.644;8.494;2023-03-16T10:51:33;100573.09;;;12.96;41.70
16355;BME280;8287;51.644;8.494;2023-03-16T10:54:07;100577.00;;;13.07;40.66
16355;BME280;8287;51.644;8.494;2023-03-16T10:56:36;100575.28;;;13.03;41.66
16355;BME280;8287;51.644;8.494;2023-03-16T10:59:26;100574.13;;;12.44;41.69
16355;BME280;8287;51.644;8.494;2023-03-16T11:01:53;100584.16;;;12.64;42.90
16355;BME280;8287;51.644;8.494;2023-03-16T11:04:20;100571.38;;;12.83;41.36
16355;BME280;8287;51.644;8.494;2023-03-16T11:06:51;100575.25;;;12.86;40.73
16355;BME280;8287;51.644;8.494;2023-03-16T11:09:22;100572.00;;;12.97;41.01
16355;BME280;8287;51.644;8.494;2023-03-16T11:11:50;100574.31;;;12.82;40.16
16355;BME280;8287;51.644;8.494;2023-03-16T11:14:20;100570.09;;;12.81;40.61
16355;BME280;8287;51.644;8.494;2023-03-16T11:16:50;100562.75;;;12.86;41.15
16355;BME280;8287;51.644;8.494;2023-03-16T11:19:22;100570.44;;;12.88;41.55
16355;BME280;8287;51.644;8.494;2023-03-16T11:21:52;100565.34;;;12.35;40.87
16355;BME280;8287;51.644;8.494;2023-03-16T11:24:26;100569.13;;;12.60;41.80
16355;BME280;8287;51.644;8.494;2023-03-16T11:26:58;100576.47;;;12.46;40.44
16355;BME280;8287;51.644;8.494;2023-03-16T11:29:34;100573.16;;;12.32;40.59
16355;BME280;8287;51.644;8.494;2023-03-16T11:32:11;100572.69;;;11.91;43.37
16355;BME280;8287;51.644;8.494;2023-03-16T11:34:43;100564.69;;;12.21;43.61
16355;BME280;8287;51.644;8.494;2023-03-16T11:37:17;100568.72;;;12.19;45.12
16355;BME280;8287;51.644;8.494;2023-03-16T11:39:59;100553.63;;;12.36;43.16
16355;BME280;8287;51.644;8.494;2023-03-16T11:42:36;100545.53;;;12.84;42.74
16355;BME280;8287;51.644;8.494;2023-03-16T11:45:16;100539.91;;;12.94;40.61
16355;BME280;8287;51.644;8.494;2023-03-16T11:48:07;100524.63;;;12.99;39.90
16355;BME280;8287;51.644;8.494;2023-03-16T11:50:57;100523.78;;;13.16;41.00
16355;BME280;8287;51.644;8.494;2023-03-16T11:53:36;100528.16;;;13.12;39.41
16355;BME280;8287;51.644;8.494;2023-03-16T11:56:20;100533.47;;;13.37;43.10
16355;BME280;8287;51.644;8.494;2023-03-16T11:59:17;100532.84;;;13.23;41.48
16355;BME280;8287;51.644;8.494;2023-03-16T12:01:56;100529.25;;;12.77;41.31
16355;BME280;8287;51.644;8.494;2023-03-16T12:04:39;100530.84;;;12.69;41.55
16355;BME280;8287;51.644;8.494;2023-03-16T12:07:23;100538.34;;;12.84;41.48
16355;BME280;8287;51.644;8.494;2023-03-16T12:10:03;100553.59;;;12.28;42.13
16355;BME280;8287;51.644;8.494;2023-03-16T12:12:44;100530.53;;;12.88;43.47
16355;BME280;8287;51.644;8.494;2023-03-16T12:15:22;100516.28;;;12.92;42.86
16355;BME280;8287;51.644;8.494;2023-03-16T12:17:59;100510.19;;;12.32;42.00
16355;BME280;8287;51.644;8.494;2023-03-16T12:20:29;100498.63;;;12.62;41.26
16355;BME280;8287;51.644;8.494;2023-03-16T12:23:01;100499.25;;;12.59;42.07
16355;BME280;8287;51.644;8.494;2023-03-16T12:25:33;100487.22;;;12.79;42.67
16355;BME280;8287;51.644;8.494;2023-03-16T12:28:09;100481.72;;;12.50;43.23
16355;BME280;8287;51.644;8.494;2023-03-16T12:30:46;100469.53;;;12.83;43.16
16355;BME280;8287;51.644;8.494;2023-03-16T12:33:23;100469.84;;;12.56;42.57
16355;BME280;8287;51.644;8.494;2023-03-16T12:35:55;100469.34;;;12.11;42.01
16355;BME280;8287;51.644;8.494;2023-03-16T12:38:41;100472.34;;;12.35;42.94
16355;BME280;8287;51.644;8.494;2023-03-16T12:41:15;100461.56;;;12.32;42.65
16355;BME280;8287;51.644;8.494;2023-03-16T12:43:53;100463.56;;;12.86;39.64
16355;BME280;8287;51.644;8.494;2023-03-16T12:46:29;100459.81;;;13.04;41.76
16355;BME280;8287;51.644;8.494;2023-03-16T12:49:01;100457.44;;;13.11;42.13
16355;BME280;8287;51.644;8.494;2023-03-16T12:51:34;100457.06;;;13.37;40.84
16355;BME280;8287;51.644;8.494;2023-03-16T12:54:01;100464.50;;;13.52;39.36
16355;BME280;8287;51.644;8.494;2023-03-16T12:56:30;100452.34;;;13.43;38.80
16355;BME280;8287;51.644;8.494;2023-03-16T12:59:00;100443.19;;;13.23;38.59
16355;BME280;8287;51.644;8.494;2023-03-16T13:01:29;100439.00;;;13.06;39.16
16355;BME280;8287;51.644;8.494;2023-03-16T13:04:02;100435.25;;;13.07;39.90
16355;BME280;8287;51.644;8.494;2023-03-16T13:06:34;100436.84;;;12.99;40.11
16355;BME280;8287;51.644;8.494;2023-03-16T13:09:03;100429.22;;;12.47;40.57
16355;BME280;8287;51.644;8.494;2023-03-16T13:11:40;100413.72;;;12.57;41.28
16355;BME280;8287;51.644;8.494;2023-03-16T13:14:14;100413.28;;;12.30;41.55
16355;BME280;8287;51.644;8.494;2023-03-16T13:16:42;100404.03;;;12.44;41.52
16355;BME280;8287;51.644;8.494;2023-03-16T13:19:31;100409.97;;;12.16;42.00